sensor_id;sensor_type;location;lat;lon;timestamp;temperature;humidity
5846;DHT22;2949;50.778;7.094;2023-01-24T00:00:48;2.70;99.90
5846;DHT22;2949;50.778;7.094;2023-01-24T00:03:14;2.80;99.90
5846;DHT22;2949;50.778;7.094;2023-01-24T00:05:43;2.80;99.90
5846;DHT22;2949;50.778;7.094;2023-01-24T00:08:10;2.80;99.90
5846;DHT22;2949;50.778;7.094;2023-01-24T00:10:37;2.90;99.90
5846;DHT22;2949;50.778;7.094;2023-01-24T00:13:03;3.00;99.90
5846;DHT22;2949;50.778;7.094;2023-01-24T00:15:28;3.00;99.90
5846;DHT22;2949;50.778;7.094;2023-01-24T00:17:54;3.00;99.90
5846;DHT22;2949;50.778;7.094;2023-01-24T00:20:19;3.00;99.90
5846;DHT22;2949;50.778;7.094;2023-01-24T00:22:45;3.00;99.90
5846;DHT22;2949;50.778;7.094;2023-01-24T00:25:11;3.10;99.90
5846;DHT22;2949;50.778;7.094;2023-01-24T00:27:36;3.00;99.90
5846;DHT22;2949;50.778;7.094;2023-01-24T00:30:03;3.00;99.90
5846;DHT22;2949;50.778;7.094;2023-01-24T00:32:29;3.00;99.90
5846;DHT22;2949;50.778;7.094;2023-01-24T00:34:55;3.00;99.90
5846;DHT22;2949;50.778;7.094;2023-01-24T00:37:20;3.20;99.90
5846;DHT22;2949;50.778;7.094;2023-01-24T00:39:46;3.20;99.90
5846;DHT22;2949;50.778;7.094;2023-01-24T00:42:11;3.20;99.90
5846;DHT22;2949;50.778;7.094;2023-01-24T00:44:37;3.30;99.90
5846;DHT22;2949;50.778;7.094;2023-01-24T00:47:02;3.20;99.90
5846;DHT22;2949;50.778;7.094;2023-01-24T00:49:28;3.10;99.90
5846;DHT22;2949;50.778;7.094;2023-01-24T00:51:54;3.10;99.90
5846;DHT22;2949;50.778;7.094;2023-01-24T00:54:19;3.10;99.90
5846;DHT22;2949;50.778;7.094;2023-01-24T00:56:45;3.00;99.90
5846;DHT22;2949;50.778;7.094;2023-01-24T00:59:10;3.00;99.90
5846;DHT22;2949;50.778;7.094;2023-01-24T01:01:36;3.00;99.90
5846;DHT22;2949;50.778;7.094;2023-01-24T01:04:02;3.00;99.90
5846;DHT22;2949;50.778;7.094;2023-01-24T01:06:27;3.00;99.90
5846;DHT22;2949;50.778;7.094;2023-01-24T01:08:53;3.00;99.90
5846;DHT22;2949;50.778;7.094;2023-01-24T01:11:19;3.00;99.90
5846;DHT22;2949;50.778;7.094;2023-01-24T01:13:44;3.00;99.90
5846;DHT22;2949;50.778;7.094;2023-01-24T01:16:15;3.00;99.90
5846;DHT22;2949;50.778;7.094;2023-01-24T01:18:45;3.00;99.90
5846;DHT22;2949;50.778;7.094;2023-01-24T01:21:13;3.00;99.90
5846;DHT22;2949;50.778;7.094;2023-01-24T01:23:39;3.00;99.90
5846;DHT22;2949;50.778;7.094;2023-01-24T01:26:06;3.00;99.90
5846;DHT22;2949;50.778;7.094;2023-01-24T01:28:32;2.90;99.90
5846;DHT22;2949;50.778;7.094;2023-01-24T01:30:57;3.00;99.90
5846;DHT22;2949;50.778;7.094;2023-01-24T01:33:23;3.10;99.90
5846;DHT22;2949;50.778;7.094;2023-01-24T01:35:50;3.20;99.90
5846;DHT22;2949;50.778;7.094;2023-01-24T01:38:16;3.30;99.90
5846;DHT22;2949;50.778;7.094;2023-01-24T01:40:42;3.30;99.90
5846;DHT22;2949;50.778;7.094;2023-01-24T01:43:19;3.30;99.90
5846;DHT22;2949;50.778;7.094;2023-01-24T01:51:11;3.00;99.90
5846;DHT22;2949;50.778;7.094;2023-01-24T01:53:45;3.10;99.90
5846;DHT22;2949;50.778;7.094;2023-01-24T01:56:29;3.10;99.90
5846;DHT22;2949;50.778;7.094;2023-01-24T01:58:59;3.00;99.90
5846;DHT22;2949;50.778;7.094;2023-01-24T02:01:26;3.00;99.90
5846;DHT22;2949;50.778;7.094;2023-01-24T02:04:00;3.00;99.90
5846;DHT22;2949;50.778;7.094;2023-01-24T02:06:50;3.00;99.90
5846;DHT22;2949;50.778;7.094;2023-01-24T02:09:21;3.00;99.90
5846;DHT22;2949;50.778;7.094;2023-01-24T02:11:48;3.00;99.90
5846;DHT22;2949;50.778;7.094;2023-01-24T02:14:17;3.00;99.90
5846;DHT22;2949;50.778;7.094;2023-01-24T02:17:02;2.90;99.90
5846;DHT22;2949;50.778;7.094;2023-01-24T02:19:56;2.90;99.90
5846;DHT22;2949;50.778;7.094;2023-01-24T02:25:26;2.80;99.90
5846;DHT22;2949;50.778;7.094;2023-01-24T02:27:54;2.90;99.90
5846;DHT22;2949;50.778;7.094;2023-01-24T02:30:20;2.90;99.90
5846;DHT22;2949;50.778;7.094;2023-01-24T02:32:45;2.90;99.90
5846;DHT22;2949;50.778;7.094;2023-01-24T02:35:24;2.80;99.90
5846;DHT22;2949;50.778;7.094;2023-01-24T02:37:50;2.90;99.90
5846;DHT22;2949;50.778;7.094;2023-01-24T02:40:17;2.90;99.90
5846;DHT22;2949;50.778;7.094;2023-01-24T02:42:43;2.80;99.90
5846;DHT22;2949;50.778;7.094;2023-01-24T02:45:23;2.80;99.90
5846;DHT22;2949;50.778;7.094;2023-01-24T02:47:50;2.80;99.90
5846;DHT22;2949;50.778;7.094;2023-01-24T02:50:18;2.80;99.90
5846;DHT22;2949;50.778;7.094;2023-01-24T02:52:45;2.80;99.90
5846;DHT22;2949;50.778;7.094;2023-01-24T02:55:29;2.80;99.90
5846;DHT22;2949;50.778;7.094;2023-01-24T02:57:56;2.80;99.90
5846;DHT22;2949;50.778;7.094;2023-01-24T03:00:40;2.80;99.90
5846;DHT22;2949;50.778;7.094;2023-01-24T03:03:07;2.80;99.90
5846;DHT22;2949;50.778;7.094;2023-01-24T03:05:33;2.70;99.90
5846;DHT22;2949;50.778;7.094;2023-01-24T03:08:12;2.70;99.90
5846;DHT22;2949;50.778;7.094;2023-01-24T03:10:37;2.70;99.90
5846;DHT22;2949;50.778;7.094;2023-01-24T03:13:04;2.70;99.90
5846;DHT22;2949;50.778;7.094;2023-01-24T03:15:48;2.70;99.90
5846;DHT22;2949;50.778;7.094;2023-01-24T03:18:32;2.70;99.90
5846;DHT22;2949;50.778;7.094;2023-01-24T03:21:16;2.70;99.90
5846;DHT22;2949;50.778;7.094;2023-01-24T03:24:00;2.70;99.90
5846;DHT22;2949;50.778;7.094;2023-01-24T03:26:44;2.80;99.90
5846;DHT22;2949;50.778;7.094;2023-01-24T03:29:28;2.80;99.90
5846;DHT22;2949;50.778;7.094;2023-01-24T03:32:12;2.80;99.90
5846;DHT22;2949;50.778;7.094;2023-01-24T03:34:56;2.90;99.90
5846;DHT22;2949;50.778;7.094;2023-01-24T03:37:24;2.90;99.90
5846;DHT22;2949;50.778;7.094;2023-01-24T03:40:11;2.80;99.90
5846;DHT22;2949;50.778;7.094;2023-01-24T03:42:38;2.70;99.90
5846;DHT22;2949;50.778;7.094;2023-01-24T03:45:16;2.70;99.90
5846;DHT22;2949;50.778;7.094;2023-01-24T03:47:47;2.70;99.90
5846;DHT22;2949;50.778;7.094;2023-01-24T03:50:42;2.60;99.90
5846;DHT22;2949;50.778;7.094;2023-01-24T03:53:27;2.60;99.90
5846;DHT22;2949;50.778;7.094;2023-01-24T03:55:58;2.60;99.90
5846;DHT22;2949;50.778;7.094;2023-01-24T03:58:26;2.60;99.90
5846;DHT22;2949;50.778;7.094;2023-01-24T04:00:52;2.50;99.90
5846;DHT22;2949;50.778;7.094;2023-01-24T04:03:18;2.60;99.90
5846;DHT22;2949;50.778;7.094;2023-01-24T04:05:46;2.60;99.90
5846;DHT22;2949;50.778;7.094;2023-01-24T04:08:12;2.70;99.90
5846;DHT22;2949;50.778;7.094;2023-01-24T04:10:37;2.80;99.90
5846;DHT22;2949;50.778;7.094;2023-01-24T04:13:03;2.80;99.90
5846;DHT22;2949;50.778;7.094;2023-01-24T04:15:30;2.80;99.90
5846;DHT22;2949;50.778;7.094;2023-01-24T04:18:02;2.90;99.90
5846;DHT22;2949;50.778;7.094;2023-01-24T04:20:30;2.80;99.90
5846;DHT22;2949;50.778;7.094;2023-01-24T04:23:00;2.80;99.90
5846;DHT22;2949;50.778;7.094;2023-01-24T04:25:25;2.70;99.90
5846;DHT22;2949;50.778;7.094;2023-01-24T04:27:51;2.70;99.90
5846;DHT22;2949;50.778;7.094;2023-01-24T04:30:16;2.70;99.90
5846;DHT22;2949;50.778;7.094;2023-01-24T04:32:42;2.70;99.90
5846;DHT22;2949;50.778;7.094;2023-01-24T04:35:10;2.70;99.90
5846;DHT22;2949;50.778;7.094;2023-01-24T04:37:40;2.70;99.90
5846;DHT22;2949;50.778;7.094;2023-01-24T04:40:06;2.70;99.90
5846;DHT22;2949;50.778;7.094;2023-01-24T04:42:31;2.80;99.90
5846;DHT22;2949;50.778;7.094;2023-01-24T04:44:57;2.70;99.90
5846;DHT22;2949;50.778;7.094;2023-01-24T04:47:22;2.60;99.90
5846;DHT22;2949;50.778;7.094;2023-01-24T04:49:48;2.60;99.90
5846;DHT22;2949;50.778;7.094;2023-01-24T04:52:13;2.50;99.90
5846;DHT22;2949;50.778;7.094;2023-01-24T04:57:09;2.40;99.90
5846;DHT22;2949;50.778;7.094;2023-01-24T04:59:35;2.40;99.90
5846;DHT22;2949;50.778;7.094;2023-01-24T05:02:01;2.40;99.90
5846;DHT22;2949;50.778;7.094;2023-01-24T05:04:27;2.50;99.90
5846;DHT22;2949;50.778;7.094;2023-01-24T05:06:52;2.60;99.90
5846;DHT22;2949;50.778;7.094;2023-01-24T05:09:18;2.70;99.90
5846;DHT22;2949;50.778;7.094;2023-01-24T05:11:43;2.70;99.90
5846;DHT22;2949;50.778;7.094;2023-01-24T05:14:09;2.70;99.90
5846;DHT22;2949;50.778;7.094;2023-01-24T05:16:35;2.60;99.90
5846;DHT22;2949;50.778;7.094;2023-01-24T05:19:01;2.60;99.90
5846;DHT22;2949;50.778;7.094;2023-01-24T05:21:26;2.70;99.90
5846;DHT22;2949;50.778;7.094;2023-01-24T05:23:53;2.80;99.90
5846;DHT22;2949;50.778;7.094;2023-01-24T05:26:23;2.80;99.90
5846;DHT22;2949;50.778;7.094;2023-01-24T05:28:51;2.80;99.90
5846;DHT22;2949;50.778;7.094;2023-01-24T05:31:17;2.90;99.90
5846;DHT22;2949;50.778;7.094;2023-01-24T05:33:43;2.90;99.90
5846;DHT22;2949;50.778;7.094;2023-01-24T05:36:11;2.90;99.90
5846;DHT22;2949;50.778;7.094;2023-01-24T05:38:37;2.90;99.90
5846;DHT22;2949;50.778;7.094;2023-01-24T05:41:05;2.90;99.90
5846;DHT22;2949;50.778;7.094;2023-01-24T05:43:32;2.80;99.90
5846;DHT22;2949;50.778;7.094;2023-01-24T05:45:59;2.90;99.90
5846;DHT22;2949;50.778;7.094;2023-01-24T05:48:25;2.90;99.90
5846;DHT22;2949;50.778;7.094;2023-01-24T05:50:59;2.80;99.90
5846;DHT22;2949;50.778;7.094;2023-01-24T05:53:26;2.80;99.90
5846;DHT22;2949;50.778;7.094;2023-01-24T05:55:59;2.80;99.90
5846;DHT22;2949;50.778;7.094;2023-01-24T05:58:26;2.80;99.90
5846;DHT22;2949;50.778;7.094;2023-01-24T06:00:52;2.80;99.90
5846;DHT22;2949;50.778;7.094;2023-01-24T06:03:18;2.80;99.90
5846;DHT22;2949;50.778;7.094;2023-01-24T06:05:48;2.80;99.90
5846;DHT22;2949;50.778;7.094;2023-01-24T06:08:14;2.80;99.90
5846;DHT22;2949;50.778;7.094;2023-01-24T06:10:40;2.80;99.90
5846;DHT22;2949;50.778;7.094;2023-01-24T06:13:05;2.80;99.90
5846;DHT22;2949;50.778;7.094;2023-01-24T06:15:31;2.80;99.90
5846;DHT22;2949;50.778;7.094;2023-01-24T06:17:57;2.80;99.90
5846;DHT22;2949;50.778;7.094;2023-01-24T06:20:22;2.70;99.90
5846;DHT22;2949;50.778;7.094;2023-01-24T06:22:53;2.70;99.90
5846;DHT22;2949;50.778;7.094;2023-01-24T06:25:22;2.70;99.90
5846;DHT22;2949;50.778;7.094;2023-01-24T06:27:49;2.70;99.90
5846;DHT22;2949;50.778;7.094;2023-01-24T06:30:15;2.70;99.90
5846;DHT22;2949;50.778;7.094;2023-01-24T06:36:37;2.70;99.90
5846;DHT22;2949;50.778;7.094;2023-01-24T06:38:36;2.70;99.90
5846;DHT22;2949;50.778;7.094;2023-01-24T06:41:02;2.70;99.90
5846;DHT22;2949;50.778;7.094;2023-01-24T06:43:28;2.70;99.90
5846;DHT22;2949;50.778;7.094;2023-01-24T06:45:55;2.70;99.90
5846;DHT22;2949;50.778;7.094;2023-01-24T06:48:20;2.80;99.90
5846;DHT22;2949;50.778;7.094;2023-01-24T06:50:47;2.70;99.90
5846;DHT22;2949;50.778;7.094;2023-01-24T06:53:13;2.70;99.90
5846;DHT22;2949;50.778;7.094;2023-01-24T06:55:43;2.60;99.90
5846;DHT22;2949;50.778;7.094;2023-01-24T06:58:09;2.60;99.90
5846;DHT22;2949;50.778;7.094;2023-01-24T07:00:34;2.50;99.90
5846;DHT22;2949;50.778;7.094;2023-01-24T07:03:01;2.50;99.90
5846;DHT22;2949;50.778;7.094;2023-01-24T07:05:28;2.50;99.90
5846;DHT22;2949;50.778;7.094;2023-01-24T07:07:54;2.50;99.90
5846;DHT22;2949;50.778;7.094;2023-01-24T07:10:19;2.50;99.90
5846;DHT22;2949;50.778;7.094;2023-01-24T07:12:45;2.50;99.90
5846;DHT22;2949;50.778;7.094;2023-01-24T07:15:10;2.50;99.90
5846;DHT22;2949;50.778;7.094;2023-01-24T07:17:37;2.50;99.90
5846;DHT22;2949;50.778;7.094;2023-01-24T07:20:03;2.60;99.90
5846;DHT22;2949;50.778;7.094;2023-01-24T07:22:28;2.60;99.90
5846;DHT22;2949;50.778;7.094;2023-01-24T07:24:54;2.60;99.90
5846;DHT22;2949;50.778;7.094;2023-01-24T07:27:20;2.60;99.90
5846;DHT22;2949;50.778;7.094;2023-01-24T07:29:46;2.60;99.90
5846;DHT22;2949;50.778;7.094;2023-01-24T07:32:11;2.60;99.90
5846;DHT22;2949;50.778;7.094;2023-01-24T07:34:37;2.60;99.90
5846;DHT22;2949;50.778;7.094;2023-01-24T07:37:06;2.70;99.90
5846;DHT22;2949;50.778;7.094;2023-01-24T07:39:31;2.70;99.90
5846;DHT22;2949;50.778;7.094;2023-01-24T07:41:57;2.70;99.90
5846;DHT22;2949;50.778;7.094;2023-01-24T07:44:22;2.80;99.90
5846;DHT22;2949;50.778;7.094;2023-01-24T07:46:48;2.80;99.90
5846;DHT22;2949;50.778;7.094;2023-01-24T07:49:13;2.80;99.90
5846;DHT22;2949;50.778;7.094;2023-01-24T07:51:39;2.90;99.90
5846;DHT22;2949;50.778;7.094;2023-01-24T07:54:05;2.80;99.90
5846;DHT22;2949;50.778;7.094;2023-01-24T07:56:31;2.90;99.90
5846;DHT22;2949;50.778;7.094;2023-01-24T07:58:57;2.80;99.90
5846;DHT22;2949;50.778;7.094;2023-01-24T08:01:23;2.80;99.90
5846;DHT22;2949;50.778;7.094;2023-01-24T08:03:49;2.80;99.90
5846;DHT22;2949;50.778;7.094;2023-01-24T08:06:15;2.80;99.90
5846;DHT22;2949;50.778;7.094;2023-01-24T08:08:42;2.80;99.90
5846;DHT22;2949;50.778;7.094;2023-01-24T08:11:08;2.80;99.90
5846;DHT22;2949;50.778;7.094;2023-01-24T08:13:36;2.80;99.90
5846;DHT22;2949;50.778;7.094;2023-01-24T08:16:02;2.80;99.90
5846;DHT22;2949;50.778;7.094;2023-01-24T08:18:28;2.80;99.90
5846;DHT22;2949;50.778;7.094;2023-01-24T08:20:56;2.90;99.90
5846;DHT22;2949;50.778;7.094;2023-01-24T08:23:22;3.00;99.90
5846;DHT22;2949;50.778;7.094;2023-01-24T08:25:48;3.00;99.90
5846;DHT22;2949;50.778;7.094;2023-01-24T08:28:13;3.10;99.90
5846;DHT22;2949;50.778;7.094;2023-01-24T08:30:39;3.20;99.90
5846;DHT22;2949;50.778;7.094;2023-01-24T08:33:05;3.10;99.90
5846;DHT22;2949;50.778;7.094;2023-01-24T08:35:31;3.20;99.90
5846;DHT22;2949;50.778;7.094;2023-01-24T08:37:57;3.20;99.90
5846;DHT22;2949;50.778;7.094;2023-01-24T08:40:23;3.20;99.90
5846;DHT22;2949;50.778;7.094;2023-01-24T08:42:49;3.20;99.90
5846;DHT22;2949;50.778;7.094;2023-01-24T08:45:14;3.20;99.90
5846;DHT22;2949;50.778;7.094;2023-01-24T08:47:40;3.30;99.90
5846;DHT22;2949;50.778;7.094;2023-01-24T08:50:06;3.30;99.90
5846;DHT22;2949;50.778;7.094;2023-01-24T08:52:32;3.40;99.90
5846;DHT22;2949;50.778;7.094;2023-01-24T08:54:57;3.40;99.90
5846;DHT22;2949;50.778;7.094;2023-01-24T08:57:23;3.40;99.90
5846;DHT22;2949;50.778;7.094;2023-01-24T08:59:48;3.50;99.90
5846;DHT22;2949;50.778;7.094;2023-01-24T09:02:15;3.50;99.90
5846;DHT22;2949;50.778;7.094;2023-01-24T09:04:41;3.50;99.90
5846;DHT22;2949;50.778;7.094;2023-01-24T09:07:11;3.60;99.90
5846;DHT22;2949;50.778;7.094;2023-01-24T09:09:36;3.60;99.90
5846;DHT22;2949;50.778;7.094;2023-01-24T09:12:02;3.70;99.90
5846;DHT22;2949;50.778;7.094;2023-01-24T09:14:28;3.70;99.90
5846;DHT22;2949;50.778;7.094;2023-01-24T09:16:54;3.70;99.90
5846;DHT22;2949;50.778;7.094;2023-01-24T09:19:20;3.70;99.90
5846;DHT22;2949;50.778;7.094;2023-01-24T09:21:45;3.60;99.90
5846;DHT22;2949;50.778;7.094;2023-01-24T09:24:27;3.60;99.90
5846;DHT22;2949;50.778;7.094;2023-01-24T09:27:05;3.70;99.90
5846;DHT22;2949;50.778;7.094;2023-01-24T09:29:30;3.70;99.90
5846;DHT22;2949;50.778;7.094;2023-01-24T09:31:56;3.70;99.90
5846;DHT22;2949;50.778;7.094;2023-01-24T09:34:21;3.70;99.90
5846;DHT22;2949;50.778;7.094;2023-01-24T09:36:48;3.70;99.90
5846;DHT22;2949;50.778;7.094;2023-01-24T09:39:15;3.70;99.90
5846;DHT22;2949;50.778;7.094;2023-01-24T09:44:25;3.80;99.90
5846;DHT22;2949;50.778;7.094;2023-01-24T09:46:54;3.90;99.90
5846;DHT22;2949;50.778;7.094;2023-01-24T09:49:34;3.90;99.90
5846;DHT22;2949;50.778;7.094;2023-01-24T09:52:06;3.90;99.90
5846;DHT22;2949;50.778;7.094;2023-01-24T09:54:43;3.80;99.90
5846;DHT22;2949;50.778;7.094;2023-01-24T09:57:32;3.80;99.90
5846;DHT22;2949;50.778;7.094;2023-01-24T10:00:13;3.90;99.90
5846;DHT22;2949;50.778;7.094;2023-01-24T10:02:40;4.00;99.90
5846;DHT22;2949;50.778;7.094;2023-01-24T10:05:12;4.00;99.90
5846;DHT22;2949;50.778;7.094;2023-01-24T10:10:41;3.90;99.90
5846;DHT22;2949;50.778;7.094;2023-01-24T10:13:22;4.00;99.90
5846;DHT22;2949;50.778;7.094;2023-01-24T10:24:26;4.20;99.90
5846;DHT22;2949;50.778;7.094;2023-01-24T10:26:53;4.20;99.90
5846;DHT22;2949;50.778;7.094;2023-01-24T10:29:27;4.20;99.90
5846;DHT22;2949;50.778;7.094;2023-01-24T10:32:01;4.20;99.90
5846;DHT22;2949;50.778;7.094;2023-01-24T10:39:31;4.20;99.90
5846;DHT22;2949;50.778;7.094;2023-01-24T10:41:56;4.20;99.90
5846;DHT22;2949;50.778;7.094;2023-01-24T10:44:29;4.30;99.90
5846;DHT22;2949;50.778;7.094;2023-01-24T10:49:50;4.40;99.90
5846;DHT22;2949;50.778;7.094;2023-01-24T10:52:21;4.40;99.90
5846;DHT22;2949;50.778;7.094;2023-01-24T10:54:53;4.30;99.90
5846;DHT22;2949;50.778;7.094;2023-01-24T10:59:51;4.40;99.90
5846;DHT22;2949;50.778;7.094;2023-01-24T11:02:22;4.40;99.90
5846;DHT22;2949;50.778;7.094;2023-01-24T11:05:03;4.40;99.90
5846;DHT22;2949;50.778;7.094;2023-01-24T11:07:33;4.30;99.90
5846;DHT22;2949;50.778;7.094;2023-01-24T11:13:40;4.40;99.90
5846;DHT22;2949;50.778;7.094;2023-01-24T11:16:24;4.40;99.90
5846;DHT22;2949;50.778;7.094;2023-01-24T11:18:58;4.40;99.90
5846;DHT22;2949;50.778;7.094;2023-01-24T11:21:25;4.40;99.90
5846;DHT22;2949;50.778;7.094;2023-01-24T11:26:35;4.40;99.90
5846;DHT22;2949;50.778;7.094;2023-01-24T11:29:04;4.40;99.90
5846;DHT22;2949;50.778;7.094;2023-01-24T11:31:38;4.40;99.90
5846;DHT22;2949;50.778;7.094;2023-01-24T11:34:22;4.40;99.90
5846;DHT22;2949;50.778;7.094;2023-01-24T11:37:13;4.40;99.90
5846;DHT22;2949;50.778;7.094;2023-01-24T11:42:43;4.40;99.90
5846;DHT22;2949;50.778;7.094;2023-01-24T11:50:38;4.40;99.90
5846;DHT22;2949;50.778;7.094;2023-01-24T12:01:54;4.60;99.90
5846;DHT22;2949;50.778;7.094;2023-01-24T12:07:28;4.50;99.90
5846;DHT22;2949;50.778;7.094;2023-01-24T12:12:40;4.40;99.90
5846;DHT22;2949;50.778;7.094;2023-01-24T12:15:37;4.50;99.90
5846;DHT22;2949;50.778;7.094;2023-01-24T12:18:28;4.50;99.90
5846;DHT22;2949;50.778;7.094;2023-01-24T12:21:05;4.40;99.90
5846;DHT22;2949;50.778;7.094;2023-01-24T12:26:21;4.40;99.90
5846;DHT22;2949;50.778;7.094;2023-01-24T12:28:59;4.40;99.90
5846;DHT22;2949;50.778;7.094;2023-01-24T12:37:26;4.40;99.90
5846;DHT22;2949;50.778;7.094;2023-01-24T12:40:02;4.40;99.90
5846;DHT22;2949;50.778;7.094;2023-01-24T12:45:26;4.40;99.90
5846;DHT22;2949;50.778;7.094;2023-01-24T12:48:10;4.40;99.90
5846;DHT22;2949;50.778;7.094;2023-01-24T12:50:56;4.40;99.90
5846;DHT22;2949;50.778;7.094;2023-01-24T12:54:14;4.40;99.90
5846;DHT22;2949;50.778;7.094;2023-01-24T12:59:10;4.30;99.90
5846;DHT22;2949;50.778;7.094;2023-01-24T13:02:01;4.30;99.90
5846;DHT22;2949;50.778;7.094;2023-01-24T13:07:28;4.30;99.90
5846;DHT22;2949;50.778;7.094;2023-01-24T13:12:47;4.10;99.90
5846;DHT22;2949;50.778;7.094;2023-01-24T13:15:20;4.10;99.90
5846;DHT22;2949;50.778;7.094;2023-01-24T13:20:45;4.00;99.90
5846;DHT22;2949;50.778;7.094;2023-01-24T13:23:27;3.90;99.90
5846;DHT22;2949;50.778;7.094;2023-01-24T13:29:05;4.00;99.90
5846;DHT22;2949;50.778;7.094;2023-01-24T13:34:35;4.10;99.90
5846;DHT22;2949;50.778;7.094;2023-01-24T13:37:03;4.10;99.90
5846;DHT22;2949;50.778;7.094;2023-01-24T13:39:37;4.00;99.90
5846;DHT22;2949;50.778;7.094;2023-01-24T13:44:43;3.90;99.90
5846;DHT22;2949;50.778;7.094;2023-01-24T13:49:38;4.10;99.90
5846;DHT22;2949;50.778;7.094;2023-01-24T13:54:56;3.90;99.90
5846;DHT22;2949;50.778;7.094;2023-01-24T13:57:33;3.90;99.90
5846;DHT22;2949;50.778;7.094;2023-01-24T14:00:03;3.90;99.90
5846;DHT22;2949;50.778;7.094;2023-01-24T14:02:31;4.00;99.90
5846;DHT22;2949;50.778;7.094;2023-01-24T14:04:58;4.10;99.90
5846;DHT22;2949;50.778;7.094;2023-01-24T14:07:36;4.10;99.90
5846;DHT22;2949;50.778;7.094;2023-01-24T14:10:05;4.10;99.90
5846;DHT22;2949;50.778;7.094;2023-01-24T14:12:36;4.00;99.90
5846;DHT22;2949;50.778;7.094;2023-01-24T14:20:29;3.90;99.90
5846;DHT22;2949;50.778;7.094;2023-01-24T14:23:01;3.90;99.90
5846;DHT22;2949;50.778;7.094;2023-01-24T14:28:12;3.90;99.90
5846;DHT22;2949;50.778;7.094;2023-01-24T14:30:46;3.80;99.90
5846;DHT22;2949;50.778;7.094;2023-01-24T14:33:28;3.70;99.90
5846;DHT22;2949;50.778;7.094;2023-01-24T14:38:46;3.80;99.90
5846;DHT22;2949;50.778;7.094;2023-01-24T14:41:20;3.80;99.90
5846;DHT22;2949;50.778;7.094;2023-01-24T14:43:47;3.80;99.90
5846;DHT22;2949;50.778;7.094;2023-01-24T14:46:16;3.80;99.90
5846;DHT22;2949;50.778;7.094;2023-01-24T14:48:45;3.80;99.90
5846;DHT22;2949;50.778;7.094;2023-01-24T14:51:16;3.80;99.90
5846;DHT22;2949;50.778;7.094;2023-01-24T14:53:49;3.80;99.90
5846;DHT22;2949;50.778;7.094;2023-01-24T14:56:15;3.70;99.90
5846;DHT22;2949;50.778;7.094;2023-01-24T14:58:41;3.70;99.90
5846;DHT22;2949;50.778;7.094;2023-01-24T15:03:52;3.60;99.90
5846;DHT22;2949;50.778;7.094;2023-01-24T15:06:19;3.60;99.90
5846;DHT22;2949;50.778;7.094;2023-01-24T15:08:47;3.60;99.90
5846;DHT22;2949;50.778;7.094;2023-01-24T15:11:31;3.50;99.90
5846;DHT22;2949;50.778;7.094;2023-01-24T15:14:12;3.50;99.90
5846;DHT22;2949;50.778;7.094;2023-01-24T15:16:51;3.50;99.90
5846;DHT22;2949;50.778;7.094;2023-01-24T15:19:24;3.40;99.90
5846;DHT22;2949;50.778;7.094;2023-01-24T15:21:51;3.40;99.90
5846;DHT22;2949;50.778;7.094;2023-01-24T15:24:27;3.40;99.90
5846;DHT22;2949;50.778;7.094;2023-01-24T15:26:54;3.30;99.90
5846;DHT22;2949;50.778;7.094;2023-01-24T15:40:31;3.30;99.90
5846;DHT22;2949;50.778;7.094;2023-01-24T15:42:58;3.20;99.90
5846;DHT22;2949;50.778;7.094;2023-01-24T15:45:51;3.20;99.90
5846;DHT22;2949;50.778;7.094;2023-01-24T15:48:37;3.20;99.90
5846;DHT22;2949;50.778;7.094;2023-01-24T15:51:04;3.20;99.90
5846;DHT22;2949;50.778;7.094;2023-01-24T15:53:42;3.10;99.90
5846;DHT22;2949;50.778;7.094;2023-01-24T15:56:18;3.20;99.90
5846;DHT22;2949;50.778;7.094;2023-01-24T15:58:46;3.20;99.90
5846;DHT22;2949;50.778;7.094;2023-01-24T16:01:13;3.20;99.90
5846;DHT22;2949;50.778;7.094;2023-01-24T16:03:39;3.20;99.90
5846;DHT22;2949;50.778;7.094;2023-01-24T16:06:05;3.20;99.90
5846;DHT22;2949;50.778;7.094;2023-01-24T16:08:30;3.20;99.90
5846;DHT22;2949;50.778;7.094;2023-01-24T16:10:56;3.20;99.90
5846;DHT22;2949;50.778;7.094;2023-01-24T16:15:58;3.20;99.90
5846;DHT22;2949;50.778;7.094;2023-01-24T16:18:24;3.10;99.90
5846;DHT22;2949;50.778;7.094;2023-01-24T16:20:50;3.10;99.90
5846;DHT22;2949;50.778;7.094;2023-01-24T16:23:16;3.10;99.90
5846;DHT22;2949;50.778;7.094;2023-01-24T16:25:41;3.10;99.90
5846;DHT22;2949;50.778;7.094;2023-01-24T16:28:15;3.10;99.90
5846;DHT22;2949;50.778;7.094;2023-01-24T16:30:42;3.00;99.90
5846;DHT22;2949;50.778;7.094;2023-01-24T16:33:07;3.00;99.90
5846;DHT22;2949;50.778;7.094;2023-01-24T16:35:33;2.90;99.90
5846;DHT22;2949;50.778;7.094;2023-01-24T16:37:58;2.80;99.90
5846;DHT22;2949;50.778;7.094;2023-01-24T16:40:24;2.80;99.90
5846;DHT22;2949;50.778;7.094;2023-01-24T16:42:49;2.80;99.90
5846;DHT22;2949;50.778;7.094;2023-01-24T16:45:18;2.70;99.90
5846;DHT22;2949;50.778;7.094;2023-01-24T16:47:43;2.70;99.90
5846;DHT22;2949;50.778;7.094;2023-01-24T16:50:10;2.70;99.90
5846;DHT22;2949;50.778;7.094;2023-01-24T16:52:36;2.80;99.90
5846;DHT22;2949;50.778;7.094;2023-01-24T16:55:04;2.80;99.90
5846;DHT22;2949;50.778;7.094;2023-01-24T16:57:30;2.80;99.90
5846;DHT22;2949;50.778;7.094;2023-01-24T16:59:55;2.90;99.90
5846;DHT22;2949;50.778;7.094;2023-01-24T17:02:21;2.80;99.90
5846;DHT22;2949;50.778;7.094;2023-01-24T17:04:47;2.80;99.90
5846;DHT22;2949;50.778;7.094;2023-01-24T17:07:13;2.90;99.90
5846;DHT22;2949;50.778;7.094;2023-01-24T17:09:38;2.80;99.90
5846;DHT22;2949;50.778;7.094;2023-01-24T17:12:04;2.80;99.90
5846;DHT22;2949;50.778;7.094;2023-01-24T17:14:32;2.70;99.90
5846;DHT22;2949;50.778;7.094;2023-01-24T17:16:58;2.70;99.90
5846;DHT22;2949;50.778;7.094;2023-01-24T17:19:23;2.80;99.90
5846;DHT22;2949;50.778;7.094;2023-01-24T17:21:49;2.70;99.90
5846;DHT22;2949;50.778;7.094;2023-01-24T17:24:14;2.70;99.90
5846;DHT22;2949;50.778;7.094;2023-01-24T17:26:40;2.80;99.90
5846;DHT22;2949;50.778;7.094;2023-01-24T17:29:05;2.80;99.90
5846;DHT22;2949;50.778;7.094;2023-01-24T17:31:31;2.80;99.90
5846;DHT22;2949;50.778;7.094;2023-01-24T17:33:57;2.80;99.90
5846;DHT22;2949;50.778;7.094;2023-01-24T17:36:23;2.80;99.90
5846;DHT22;2949;50.778;7.094;2023-01-24T17:38:51;2.80;99.90
5846;DHT22;2949;50.778;7.094;2023-01-24T17:41:19;2.80;99.90
5846;DHT22;2949;50.778;7.094;2023-01-24T17:43:45;2.80;99.90
5846;DHT22;2949;50.778;7.094;2023-01-24T17:46:13;2.70;99.90
5846;DHT22;2949;50.778;7.094;2023-01-24T17:48:41;2.70;99.90
5846;DHT22;2949;50.778;7.094;2023-01-24T17:51:08;2.70;99.90
5846;DHT22;2949;50.778;7.094;2023-01-24T17:53:36;2.70;99.90
5846;DHT22;2949;50.778;7.094;2023-01-24T17:56:02;2.70;99.90
5846;DHT22;2949;50.778;7.094;2023-01-24T17:58:29;2.70;99.90
5846;DHT22;2949;50.778;7.094;2023-01-24T18:00:54;2.80;99.90
5846;DHT22;2949;50.778;7.094;2023-01-24T18:03:20;2.80;99.90
5846;DHT22;2949;50.778;7.094;2023-01-24T18:05:52;2.80;99.90
5846;DHT22;2949;50.778;7.094;2023-01-24T18:08:18;2.70;99.90
5846;DHT22;2949;50.778;7.094;2023-01-24T18:10:45;2.70;99.90
5846;DHT22;2949;50.778;7.094;2023-01-24T18:13:11;2.60;99.90
5846;DHT22;2949;50.778;7.094;2023-01-24T18:15:36;2.60;99.90
5846;DHT22;2949;50.778;7.094;2023-01-24T18:18:02;2.70;99.90
5846;DHT22;2949;50.778;7.094;2023-01-24T18:20:28;2.60;99.90
5846;DHT22;2949;50.778;7.094;2023-01-24T18:22:54;2.70;99.90
5846;DHT22;2949;50.778;7.094;2023-01-24T18:25:20;2.60;99.90
5846;DHT22;2949;50.778;7.094;2023-01-24T18:27:45;2.70;99.90
5846;DHT22;2949;50.778;7.094;2023-01-24T18:30:11;2.70;99.90
5846;DHT22;2949;50.778;7.094;2023-01-24T18:32:37;2.70;99.90
5846;DHT22;2949;50.778;7.094;2023-01-24T18:35:03;2.60;99.90
5846;DHT22;2949;50.778;7.094;2023-01-24T18:37:29;2.60;99.90
5846;DHT22;2949;50.778;7.094;2023-01-24T18:39:54;2.70;99.90
5846;DHT22;2949;50.778;7.094;2023-01-24T18:42:20;2.60;99.90